Anawalt, West Virginia
Current Conditions -  °F | °C
As of 4:52 AM on Sunday 26 Oct 2014 (Local Time) from KBLF Reporting Station
Overcast Overcast  
Wind Chill: 57°   Ceiling: 1100
Heat Index: 57°   Visibility: 10mi
Dew Point: 51°   Wind: 13mph
Humidity: 81%   Direction: 300°WNW
Pressure: 29.93"   Gusts: 21mph
Location:  37.34°N, 81.44°W
Report Text: KBLF 260852Z AUTO 30011G18KT 10SM BKN011 OVC018 14/11 A2993 RMK AO2 SLP112 T01390106 56004
Loading
Personal Weather Stations






























Interactive Weather Map New forecast layout! Learn more

10-Day Weather Forecast

Advertisements
Track Severe Weather on mobile